Time;durP1;ratioP1;P1;durP2;ratioP2;P2;SDS_P1;SDS_P2;PMS_P1;PMS_P2;Temp;Humidity;BMP_temperature;BMP_pressure;BME280_temperature;BME280_humidity;BME280_pressure;Samples;Min_cycle;Max_cycle;Signal;HPM_P1;HPM_P2
2022/04/19 00:00:48;;;;;;;0.30;0.30;;;6.90;99.90;;;;;;4956401;28;20434;-89
2022/04/19 00:03:15;;;;;;;0.30;0.30;;;6.70;99.90;;;;;;4952730;28;20493;-88
2022/04/19 00:05:41;;;;;;;0.30;0.30;;;6.70;99.90;;;;;;4953373;28;20446;-88
2022/04/19 00:08:08;;;;;;;0.30;0.30;;;6.80;99.90;;;;;;4953041;28;20478;-89
2022/04/19 00:10:34;;;;;;;0.30;0.30;;;6.80;99.90;;;;;;4952208;28;20584;-88
2022/04/19 00:13:01;;;;;;;0.30;0.30;;;6.80;99.90;;;;;;4949712;28;20506;-88
2022/04/19 00:15:28;;;;;;;0.20;0.20;;;6.80;99.90;;;;;;4954464;28;20544;-88
2022/04/19 00:17:58;;;;;;;0.30;0.30;;;6.90;99.90;;;;;;4954794;28;20437;-88
2022/04/19 00:20:24;;;;;;;0.30;0.30;;;6.80;99.90;;;;;;4973960;28;20433;-87
2022/04/19 00:22:50;;;;;;;0.30;0.30;;;6.80;99.90;;;;;;4959282;28;20512;-88
2022/04/19 00:25:17;;;;;;;0.30;0.30;;;6.70;99.90;;;;;;4952506;28;20938;-88
2022/04/19 00:27:43;;;;;;;0.30;0.30;;;6.60;99.90;;;;;;4950692;28;20210;-88
2022/04/19 00:30:09;;;;;;;0.30;0.30;;;6.60;99.90;;;;;;4951761;28;20888;-87
2022/04/19 00:32:35;;;;;;;0.40;0.40;;;6.60;99.90;;;;;;4948480;28;20724;-88
2022/04/19 00:35:02;;;;;;;0.30;0.30;;;6.50;99.90;;;;;;4951156;28;20484;-88
2022/04/19 00:37:27;;;;;;;0.30;0.30;;;6.60;99.90;;;;;;4953636;28;20453;-88
2022/04/19 00:39:53;;;;;;;0.30;0.30;;;6.50;99.90;;;;;;4952132;29;20846;-87
2022/04/19 00:42:19;;;;;;;0.30;0.30;;;6.50;99.90;;;;;;4954057;28;20193;-88
2022/04/19 00:44:44;;;;;;;0.30;0.30;;;6.50;99.90;;;;;;4947291;28;20306;-87
2022/04/19 00:47:11;;;;;;;0.30;0.30;;;6.40;99.90;;;;;;4951933;28;20201;-87
2022/04/19 00:49:40;;;;;;;0.30;0.30;;;6.50;99.90;;;;;;4954275;28;20246;-88
2022/04/19 00:52:07;;;;;;;0.40;0.40;;;6.60;99.90;;;;;;4952897;28;20526;-89
2022/04/19 00:54:33;;;;;;;0.30;0.30;;;6.60;99.90;;;;;;4950910;28;20462;-88
2022/04/19 00:56:59;;;;;;;0.30;0.30;;;6.50;99.90;;;;;;4939263;28;20454;-88
2022/04/19 00:59:25;;;;;;;0.40;0.40;;;6.50;99.90;;;;;;4950399;28;20466;-88
2022/04/19 01:01:50;;;;;;;0.23;0.23;;;6.40;99.90;;;;;;4950385;28;20505;-89
2022/04/19 01:04:16;;;;;;;0.30;0.30;;;6.40;99.90;;;;;;4950473;28;20191;-87
2022/04/19 01:06:42;;;;;;;0.20;0.20;;;6.40;99.90;;;;;;4951873;28;20238;-88
2022/04/19 01:09:07;;;;;;;0.30;0.30;;;6.50;99.90;;;;;;4951581;28;20222;-88
2022/04/19 01:14:19;;;;;;;0.30;0.30;;;6.30;99.90;;;;;;4953409;28;20206;-88
2022/04/19 01:16:45;;;;;;;0.30;0.30;;;6.30;99.90;;;;;;4949367;28;20454;-88
2022/04/19 01:19:16;;;;;;;0.30;0.30;;;6.30;99.90;;;;;;4951739;28;20957;-87
2022/04/19 01:21:54;;;;;;;0.37;0.37;;;6.30;99.90;;;;;;4951864;28;20190;-88
2022/04/19 01:24:21;;;;;;;0.40;0.40;;;6.20;99.90;;;;;;4951254;28;20478;-89
2022/04/19 01:26:48;;;;;;;0.30;0.30;;;6.10;99.90;;;;;;4952063;28;20870;-88
2022/04/19 01:29:15;;;;;;;0.23;0.23;;;6.10;99.90;;;;;;4952818;28;20548;-88
2022/04/19 01:31:42;;;;;;;0.30;0.30;;;6.30;99.90;;;;;;4951575;28;20456;-87
2022/04/19 01:34:09;;;;;;;0.30;0.30;;;6.10;99.90;;;;;;4951824;28;20457;-88
2022/04/19 01:36:35;;;;;;;0.30;0.30;;;6.20;99.90;;;;;;4951741;28;20462;-88
2022/04/19 01:39:06;;;;;;;0.37;0.37;;;6.10;99.90;;;;;;4948932;28;20496;-88
2022/04/19 01:41:32;;;;;;;0.30;0.30;;;6.00;99.90;;;;;;4951938;28;20454;-87
2022/04/19 01:43:59;;;;;;;0.30;0.30;;;6.10;99.90;;;;;;4951931;28;20958;-89
2022/04/19 01:46:26;;;;;;;0.30;0.30;;;6.10;99.90;;;;;;4948562;28;21039;-89
2022/04/19 01:48:53;;;;;;;0.30;0.30;;;6.10;99.90;;;;;;4949971;28;20482;-88
2022/04/19 01:51:20;;;;;;;0.30;0.30;;;5.90;99.90;;;;;;4952414;28;20973;-88
2022/04/19 01:53:45;;;;;;;0.30;0.30;;;5.90;99.90;;;;;;4952535;28;20440;-88
2022/04/19 01:56:11;;;;;;;0.40;0.40;;;5.90;99.90;;;;;;4955585;28;20453;-88
2022/04/19 01:58:37;;;;;;;0.30;0.30;;;5.90;99.90;;;;;;4950687;29;20221;-89
2022/04/19 02:01:02;;;;;;;0.30;0.30;;;5.70;99.90;;;;;;4950989;28;20195;-87
2022/04/19 02:03:28;;;;;;;0.27;0.27;;;5.70;99.90;;;;;;4953022;28;20422;-90
2022/04/19 02:05:53;;;;;;;0.30;0.30;;;5.50;99.90;;;;;;4950768;28;20608;-89
2022/04/19 02:08:19;;;;;;;0.30;0.30;;;5.70;99.90;;;;;;4950734;28;20266;-90
2022/04/19 02:10:44;;;;;;;0.40;0.40;;;5.70;99.90;;;;;;4953520;28;20717;-90
2022/04/19 02:13:10;;;;;;;0.40;0.40;;;5.70;99.90;;;;;;4952092;28;20274;-91
2022/04/19 02:15:35;;;;;;;0.30;0.30;;;5.80;99.90;;;;;;4957685;28;20267;-90
2022/04/19 02:18:01;;;;;;;0.30;0.30;;;5.70;99.90;;;;;;4960716;28;20184;-89
2022/04/19 02:20:27;;;;;;;0.30;0.30;;;5.50;99.90;;;;;;4950310;28;20190;-90
2022/04/19 02:22:52;;;;;;;0.30;0.30;;;5.50;99.90;;;;;;4951055;28;20260;-90
2022/04/19 02:25:18;;;;;;;0.37;0.37;;;5.40;99.90;;;;;;4948742;29;20519;-90
2022/04/19 02:27:44;;;;;;;0.30;0.30;;;5.60;99.90;;;;;;4949207;28;20186;-90
2022/04/19 02:30:16;;;;;;;0.40;0.40;;;5.60;99.90;;;;;;4950274;28;20497;-91
2022/04/19 02:32:47;;;;;;;0.40;0.40;;;5.40;99.90;;;;;;4952047;28;20442;-90
2022/04/19 02:35:15;;;;;;;0.40;0.40;;;5.50;99.90;;;;;;4949475;29;20450;-91
2022/04/19 02:38:07;;;;;;;0.40;0.40;;;5.60;99.90;;;;;;4951461;28;20446;-91
2022/04/19 02:40:32;;;;;;;0.40;0.40;;;5.50;99.90;;;;;;4946469;28;20446;-91
2022/04/19 02:42:58;;;;;;;0.30;0.30;;;5.50;99.90;;;;;;4950636;28;20446;-91
2022/04/19 02:45:24;;;;;;;0.30;0.30;;;5.50;99.90;;;;;;4949866;28;20218;-90
2022/04/19 02:48:06;;;;;;;0.33;0.33;;;5.20;99.90;;;;;;4950578;28;20194;-89
2022/04/19 02:50:34;;;;;;;0.37;0.37;;;5.10;99.90;;;;;;4950712;29;20912;-90
2022/04/19 02:53:01;;;;;;;0.30;0.30;;;5.10;99.90;;;;;;4952079;28;20477;-90
2022/04/19 02:55:27;;;;;;;0.33;0.33;;;5.10;99.90;;;;;;4954354;29;20449;-91
2022/04/19 02:57:53;;;;;;;0.40;0.40;;;5.10;99.90;;;;;;4955172;28;20489;-91
2022/04/19 03:00:20;;;;;;;0.37;0.37;;;5.10;99.90;;;;;;4951623;28;20442;-90
2022/04/19 03:02:46;;;;;;;0.40;0.40;;;5.10;99.90;;;;;;4956851;28;20182;-90
2022/04/19 03:05:13;;;;;;;0.40;0.40;;;5.20;99.90;;;;;;4953387;28;20485;-91
2022/04/19 03:07:38;;;;;;;0.40;0.40;;;5.30;99.90;;;;;;4966676;28;20547;-89
2022/04/19 03:10:06;;;;;;;0.40;0.40;;;5.30;99.90;;;;;;4974785;28;20541;-90
2022/04/19 03:12:31;;;;;;;0.40;0.40;;;5.30;99.90;;;;;;4975002;28;20273;-90
2022/04/19 03:14:57;;;;;;;0.33;0.33;;;5.20;99.90;;;;;;4956419;28;20461;-91
2022/04/19 03:17:22;;;;;;;0.30;0.30;;;5.20;99.90;;;;;;4973339;28;20193;-91
2022/04/19 03:19:48;;;;;;;0.37;0.37;;;5.20;99.90;;;;;;4974742;28;20548;-90
2022/04/19 03:22:13;;;;;;;0.37;0.37;;;5.20;99.90;;;;;;4974711;28;20201;-90
2022/04/19 03:27:41;;;;;;;0.30;0.30;;;4.90;99.90;;;;;;4972870;28;20201;-90
2022/04/19 03:30:14;;;;;;;0.40;0.40;;;4.80;99.90;;;;;;4952468;28;20493;-90
2022/04/19 03:32:43;;;;;;;0.30;0.30;;;4.90;99.90;;;;;;4954712;28;20445;-89
2022/04/19 03:35:09;;;;;;;0.30;0.30;;;4.80;99.90;;;;;;4973570;28;20456;-92
2022/04/19 03:37:34;;;;;;;0.40;0.40;;;4.80;99.90;;;;;;4973853;28;20440;-90
2022/04/19 03:40:00;;;;;;;0.30;0.30;;;4.70;99.90;;;;;;4953175;28;20201;-90
2022/04/19 03:42:25;;;;;;;0.40;0.40;;;4.60;99.90;;;;;;4956811;28;20190;-89
2022/04/19 03:44:51;;;;;;;0.30;0.30;;;4.70;99.90;;;;;;4952619;28;20536;-90
2022/04/19 03:47:17;;;;;;;0.37;0.37;;;4.70;99.90;;;;;;4954460;28;20543;-90
2022/04/19 03:49:42;;;;;;;0.30;0.30;;;4.60;99.90;;;;;;4972247;28;21982;-89
2022/04/19 03:52:08;;;;;;;0.30;0.30;;;4.60;99.90;;;;;;4972826;28;20445;-91
2022/04/19 03:54:35;;;;;;;0.33;0.33;;;4.50;99.90;;;;;;4973703;28;20190;-90
2022/04/19 03:57:10;;;;;;;0.40;0.40;;;4.70;99.90;;;;;;4974271;28;20499;-90
2022/04/19 03:59:37;;;;;;;0.30;0.30;;;4.70;99.90;;;;;;4970148;28;20948;-91
2022/04/19 04:02:05;;;;;;;0.30;0.30;;;4.80;99.90;;;;;;4969750;28;20449;-94
2022/04/19 04:04:32;;;;;;;0.30;0.30;;;4.70;99.90;;;;;;4973634;28;20496;-91
2022/04/19 04:06:58;;;;;;;0.40;0.40;;;4.60;99.90;;;;;;4971147;28;20484;-90
2022/04/19 04:09:24;;;;;;;0.40;0.40;;;4.50;99.90;;;;;;4972262;28;20488;-90
2022/04/19 04:11:50;;;;;;;0.40;0.40;;;4.50;99.90;;;;;;4973783;28;20186;-91
2022/04/19 04:14:16;;;;;;;0.40;0.40;;;4.50;99.90;;;;;;4973013;28;20504;-90
2022/04/19 04:16:41;;;;;;;0.33;0.33;;;4.40;99.90;;;;;;4972630;28;20872;-89
2022/04/19 04:19:07;;;;;;;0.33;0.33;;;4.40;99.90;;;;;;4972562;28;20617;-90
2022/04/19 04:21:32;;;;;;;0.30;0.30;;;4.50;99.90;;;;;;4971702;28;20609;-90
2022/04/19 04:23:58;;;;;;;0.40;0.40;;;4.40;99.90;;;;;;4951137;28;20768;-91
2022/04/19 04:26:23;;;;;;;0.30;0.30;;;4.40;99.90;;;;;;4953731;28;20189;-90
2022/04/19 04:28:49;;;;;;;0.40;0.40;;;4.40;99.90;;;;;;4954041;28;20554;-91
2022/04/19 04:31:14;;;;;;;0.40;0.40;;;4.50;99.90;;;;;;4964701;28;20248;-90
2022/04/19 04:33:40;;;;;;;0.40;0.40;;;4.40;99.90;;;;;;4969687;28;20182;-90
2022/04/19 04:36:05;;;;;;;0.40;0.40;;;4.50;99.90;;;;;;4964650;28;20186;-91
2022/04/19 04:38:31;;;;;;;0.40;0.40;;;4.50;99.90;;;;;;4974641;28;20186;-91
2022/04/19 04:40:57;;;;;;;0.40;0.40;;;4.60;99.90;;;;;;4970345;28;20911;-91
2022/04/19 04:43:23;;;;;;;0.40;0.40;;;4.60;99.90;;;;;;4975440;28;20472;-91
2022/04/19 04:49:35;;;;;;;0.30;0.30;;;4.60;99.90;;;;;;4973644;28;20996;-90
2022/04/19 04:51:18;;;;;;;0.40;0.40;;;4.80;99.90;;;;;;4971360;28;20488;-91
2022/04/19 04:53:43;;;;;;;0.40;0.40;;;4.70;99.90;;;;;;4968336;28;20442;-91
2022/04/19 04:56:09;;;;;;;0.40;0.40;;;4.70;99.90;;;;;;4968360;28;20225;-90
2022/04/19 04:58:34;;;;;;;0.40;0.40;;;4.90;99.90;;;;;;4966427;28;20190;-91
2022/04/19 05:01:00;;;;;;;0.30;0.30;;;4.90;99.90;;;;;;4970550;28;20724;-91
2022/04/19 05:03:25;;;;;;;0.40;0.40;;;4.90;99.90;;;;;;4964294;28;20224;-90
2022/04/19 05:05:51;;;;;;;0.40;0.40;;;5.00;99.90;;;;;;4972164;28;20482;-92
2022/04/19 05:08:18;;;;;;;0.40;0.40;;;5.10;99.90;;;;;;4967441;28;20230;-89
2022/04/19 05:10:43;;;;;;;0.30;0.30;;;5.00;99.90;;;;;;4965484;28;20222;-88
2022/04/19 05:13:09;;;;;;;0.40;0.40;;;5.00;99.90;;;;;;4962253;28;20504;-91
2022/04/19 05:15:35;;;;;;;0.40;0.40;;;5.00;99.90;;;;;;4969486;28;20194;-91
2022/04/19 05:18:00;;;;;;;0.30;0.30;;;5.20;99.90;;;;;;4965127;28;20230;-90
2022/04/19 05:20:26;;;;;;;0.40;0.40;;;5.20;99.90;;;;;;4971930;28;20595;-90
2022/04/19 05:22:51;;;;;;;0.40;0.40;;;5.20;99.90;;;;;;4971883;28;20288;-90
2022/04/19 05:25:17;;;;;;;0.30;0.30;;;5.30;99.90;;;;;;4949355;28;20189;-89
2022/04/19 05:27:43;;;;;;;0.30;0.30;;;5.30;99.90;;;;;;4964072;28;20194;-91
2022/04/19 05:30:09;;;;;;;0.30;0.30;;;5.30;99.90;;;;;;4970314;28;20218;-89
2022/04/19 05:32:34;;;;;;;0.30;0.30;;;5.30;99.90;;;;;;4951825;28;20193;-89
2022/04/19 05:35:00;;;;;;;0.30;0.30;;;5.40;99.90;;;;;;4952513;28;20448;-90
2022/04/19 05:37:26;;;;;;;0.30;0.30;;;5.50;99.90;;;;;;4950500;28;20182;-90
2022/04/19 05:39:51;;;;;;;0.40;0.40;;;5.50;99.90;;;;;;4969249;28;20276;-92
2022/04/19 05:42:17;;;;;;;0.30;0.30;;;5.60;99.90;;;;;;4971061;28;20185;-91
2022/04/19 05:44:43;;;;;;;0.40;0.40;;;5.60;99.90;;;;;;4968017;28;20309;-90
2022/04/19 05:47:09;;;;;;;0.33;0.33;;;5.60;99.90;;;;;;4969784;28;20195;-91
2022/04/19 05:49:35;;;;;;;0.40;0.40;;;5.70;99.90;;;;;;4954885;28;20479;-91
2022/04/19 05:52:01;;;;;;;0.33;0.33;;;5.80;99.90;;;;;;4971726;28;20453;-88
2022/04/19 05:54:27;;;;;;;0.30;0.30;;;5.80;99.90;;;;;;4972963;28;20193;-91
2022/04/19 05:56:53;;;;;;;0.30;0.30;;;5.90;99.90;;;;;;4970861;28;20524;-91
2022/04/19 05:59:18;;;;;;;0.30;0.30;;;5.90;99.90;;;;;;4952393;28;20627;-91
2022/04/19 06:07:25;;;;;;;0.30;0.30;;;6.10;99.90;;;;;;4960534;28;20492;-91
2022/04/19 06:09:50;;;;;;;0.40;0.40;;;6.30;99.90;;;;;;4969822;28;20487;-91
2022/04/19 06:12:16;;;;;;;0.30;0.30;;;6.40;99.90;;;;;;4968128;28;20437;-90
2022/04/19 06:14:41;;;;;;;0.30;0.30;;;6.50;99.90;;;;;;4968508;28;20186;-90
2022/04/19 06:17:07;;;;;;;0.40;0.40;;;6.60;99.90;;;;;;4952617;28;20256;-90
2022/04/19 06:19:33;;;;;;;0.30;0.30;;;6.70;99.90;;;;;;4970918;28;20200;-90
2022/04/19 06:21:59;;;;;;;0.27;0.27;;;6.90;99.90;;;;;;4955103;28;20182;-89
2022/04/19 06:24:25;;;;;;;0.30;0.30;;;7.10;99.90;;;;;;4971597;28;20193;-88
2022/04/19 06:26:51;;;;;;;0.30;0.30;;;7.30;99.90;;;;;;4953506;28;20430;-87
2022/04/19 06:29:17;;;;;;;0.30;0.30;;;7.30;99.90;;;;;;4966598;28;20479;-87
2022/04/19 06:31:43;;;;;;;0.30;0.30;;;7.40;99.90;;;;;;4945675;28;20520;-87
2022/04/19 06:34:09;;;;;;;0.30;0.30;;;7.60;99.90;;;;;;4967785;28;20273;-87
2022/04/19 06:36:35;;;;;;;0.30;0.30;;;7.70;99.90;;;;;;4966381;28;20515;-87
2022/04/19 06:39:01;;;;;;;0.30;0.30;;;7.80;99.90;;;;;;4965022;28;20932;-85
2022/04/19 06:41:26;;;;;;;0.30;0.30;;;8.00;99.90;;;;;;4963530;28;20194;-85
2022/04/19 06:43:53;;;;;;;0.30;0.30;;;8.30;99.90;;;;;;4964815;28;20252;-85
2022/04/19 06:46:19;;;;;;;0.30;0.30;;;8.40;99.90;;;;;;4968416;28;20659;-83
2022/04/19 06:48:44;;;;;;;0.30;0.30;;;8.60;99.90;;;;;;4965557;28;20544;-86
2022/04/19 06:51:10;;;;;;;0.20;0.20;;;8.90;99.90;;;;;;4945103;28;20193;-87
2022/04/19 06:53:36;;;;;;;0.20;0.20;;;9.00;99.90;;;;;;4969347;28;20606;-91
2022/04/19 06:56:04;;;;;;;0.20;0.20;;;9.00;99.90;;;;;;4960569;28;20198;-87
2022/04/19 06:58:32;;;;;;;0.27;0.27;;;9.10;99.90;;;;;;4968042;28;20528;-89
2022/04/19 07:00:58;;;;;;;0.20;0.20;;;9.10;99.90;;;;;;4949543;28;20937;-89
2022/04/19 07:03:26;;;;;;;0.20;0.20;;;9.10;99.90;;;;;;4967790;28;20540;-88
2022/04/19 07:05:52;;;;;;;0.20;0.20;;;9.10;99.90;;;;;;4970459;28;20696;-88
2022/04/19 07:08:17;;;;;;;0.20;0.20;;;9.30;99.90;;;;;;4952426;28;20485;-88
2022/04/19 07:10:43;;;;;;;0.20;0.20;;;9.30;99.90;;;;;;4970191;28;20225;-87
2022/04/19 07:13:10;;;;;;;0.20;0.20;;;9.40;99.90;;;;;;4960135;28;20615;-87
2022/04/19 07:15:35;;;;;;;0.20;0.20;;;9.40;99.90;;;;;;4960879;28;20221;-88
2022/04/19 07:18:01;;;;;;;0.20;0.20;;;9.60;99.90;;;;;;4970347;28;20473;-88
2022/04/19 07:28:39;;;;;;;0.20;0.20;;;10.50;99.90;;;;;;4970249;28;20859;-87
2022/04/19 07:31:04;;;;;;;0.20;0.20;;;10.90;99.90;;;;;;4951890;28;20484;-89
2022/04/19 07:33:31;;;;;;;0.20;0.20;;;10.90;99.90;;;;;;4954363;28;20245;-91
2022/04/19 07:35:57;;;;;;;0.20;0.20;;;10.90;99.90;;;;;;4970125;28;20194;-92
2022/04/19 07:38:23;;;;;;;0.20;0.20;;;10.90;99.90;;;;;;4969828;28;20456;-89
2022/04/19 07:40:49;;;;;;;0.20;0.20;;;11.10;99.90;;;;;;4969664;28;21068;-90
2022/04/19 07:43:15;;;;;;;0.10;0.10;;;11.20;99.90;;;;;;4971611;28;20209;-89
2022/04/19 07:45:41;;;;;;;0.20;0.20;;;11.30;99.90;;;;;;4975215;28;20504;-90
2022/04/19 07:48:07;;;;;;;0.20;0.20;;;11.60;99.90;;;;;;4969294;28;20456;-91
2022/04/19 07:50:34;;;;;;;0.10;0.10;;;11.90;99.90;;;;;;4974189;28;20233;-93
2022/04/19 07:53:00;;;;;;;0.20;0.20;;;12.00;99.90;;;;;;4972428;28;20182;-90
2022/04/19 07:55:27;;;;;;;0.10;0.10;;;12.10;99.90;;;;;;4971929;28;20453;-92
2022/04/19 07:57:53;;;;;;;0.10;0.10;;;12.00;99.90;;;;;;4983162;28;20432;-93
2022/04/19 08:00:19;;;;;;;0.20;0.20;;;12.20;99.90;;;;;;4979300;28;20957;-94
2022/04/19 08:02:45;;;;;;;0.10;0.10;;;12.50;99.90;;;;;;4979105;28;20174;-95
2022/04/19 08:05:11;;;;;;;0.10;0.10;;;12.50;99.90;;;;;;4976200;28;20468;-95
2022/04/19 08:07:36;;;;;;;0.10;0.10;;;12.70;99.90;;;;;;4976389;28;20473;-94
2022/04/19 08:10:03;;;;;;;0.20;0.20;;;12.70;99.90;;;;;;4960318;28;20217;-96
2022/04/19 08:12:29;;;;;;;0.10;0.10;;;12.90;99.90;;;;;;4964016;28;20622;-94
2022/04/19 08:14:55;;;;;;;0.10;0.10;;;12.80;99.90;;;;;;4973283;28;20532;-92
2022/04/19 08:17:21;;;;;;;0.10;0.10;;;12.90;99.90;;;;;;4959628;28;20193;-94
2022/04/19 08:19:47;;;;;;;0.10;0.10;;;13.10;99.90;;;;;;4976175;28;20848;-94
2022/04/19 08:22:12;;;;;;;0.10;0.10;;;13.30;99.90;;;;;;4961292;28;20198;-95
2022/04/19 08:24:38;;;;;;;0.10;0.10;;;13.40;99.90;;;;;;4976265;28;20217;-93
2022/04/19 08:27:04;;;;;;;0.10;0.10;;;13.20;99.90;;;;;;4976087;28;20194;-94
2022/04/19 08:29:30;;;;;;;0.10;0.10;;;13.00;99.90;;;;;;4971437;28;21094;-94
2022/04/19 08:31:56;;;;;;;0.10;0.10;;;13.10;99.90;;;;;;4977154;28;20456;-91
2022/04/19 08:34:21;;;;;;;0.10;0.10;;;13.20;99.90;;;;;;4968119;28;20193;-93
2022/04/19 08:36:47;;;;;;;0.10;0.10;;;13.10;99.90;;;;;;4975596;28;20232;-93
2022/04/19 08:39:12;;;;;;;0.20;0.20;;;12.80;99.90;;;;;;4957653;28;20194;-92
2022/04/19 08:41:40;;;;;;;0.10;0.10;;;12.80;99.90;;;;;;4973361;28;20236;-94
2022/04/19 08:44:06;;;;;;;0.10;0.10;;;13.00;99.90;;;;;;4973564;28;20241;-93
2022/04/19 08:46:33;;;;;;;0.10;0.10;;;13.60;99.90;;;;;;4952488;28;20447;-94
2022/04/19 08:49:05;;;;;;;0.20;0.20;;;14.10;99.90;;;;;;4954258;28;20944;-93
2022/04/19 08:51:34;;;;;;;0.10;0.10;;;14.60;99.90;;;;;;4955558;28;20520;-94
2022/04/19 08:59:30;;;;;;;0.10;0.10;;;15.30;99.90;;;;;;4972531;28;20819;-91
2022/04/19 09:01:56;;;;;;;0.10;0.10;;;15.20;99.90;;;;;;4972611;28;20453;-93
2022/04/19 09:04:22;;;;;;;0.10;0.10;;;15.20;99.90;;;;;;4974003;28;20529;-93
2022/04/19 09:06:56;;;;;;;0.10;0.10;;;15.20;99.90;;;;;;4974720;28;20773;-93
2022/04/19 09:09:29;;;;;;;0.10;0.10;;;15.30;99.90;;;;;;4969329;28;20476;-94
2022/04/19 09:12:11;;;;;;;0.10;0.10;;;15.60;99.90;;;;;;4973845;28;20437;-93
2022/04/19 09:14:54;;;;;;;0.03;0.03;;;15.70;99.90;;;;;;4971333;28;20809;-91
2022/04/19 09:17:33;;;;;;;0.10;0.10;;;15.90;99.90;;;;;;4975339;28;20533;-92
2022/04/19 09:20:12;;;;;;;0.10;0.10;;;15.90;99.90;;;;;;4955805;28;20539;-91
2022/04/19 09:22:38;;;;;;;0.10;0.10;;;16.10;99.90;;;;;;4974054;28;20432;-92
2022/04/19 09:25:21;;;;;;;0.10;0.10;;;16.00;99.90;;;;;;4970678;28;20437;-93
2022/04/19 09:27:48;;;;;;;0.10;0.10;;;15.90;99.90;;;;;;4972982;28;20670;-90
2022/04/19 09:30:24;;;;;;;0.10;0.10;;;16.00;99.90;;;;;;4969899;28;20493;-94
2022/04/19 09:33:05;;;;;;;0.10;0.10;;;15.80;99.90;;;;;;4971907;28;20463;-93
2022/04/19 09:35:33;;;;;;;0.10;0.10;;;15.90;99.90;;;;;;4961068;28;20433;-93
2022/04/19 09:37:59;;;;;;;0.10;0.10;;;16.20;99.90;;;;;;4974639;28;20453;-93
2022/04/19 09:40:39;;;;;;;0.10;0.10;;;16.30;99.90;;;;;;4974841;28;20430;-95
2022/04/19 09:43:20;;;;;;;0.10;0.10;;;16.20;99.90;;;;;;4974358;28;20204;-94
2022/04/19 09:45:47;;;;;;;0.10;0.10;;;16.60;99.90;;;;;;4973351;28;20902;-95
2022/04/19 09:48:17;;;;;;;0.00;0.00;;;16.40;99.90;;;;;;4969022;28;20442;-95
2022/04/19 09:50:58;;;;;;;0.00;0.00;;;16.40;99.20;;;;;;4969072;28;20473;-95
2022/04/19 09:53:28;;;;;;;0.00;0.00;;;16.60;98.70;;;;;;4972730;28;20441;-94
2022/04/19 09:55:56;;;;;;;0.00;0.00;;;16.90;99.00;;;;;;4973862;28;20472;-94
2022/04/19 09:58:22;;;;;;;0.00;0.00;;;17.00;98.50;;;;;;4973729;28;20448;-91
2022/04/19 10:00:49;;;;;;;0.00;0.00;;;17.30;99.40;;;;;;4971802;28;20554;-95
2022/04/19 10:08:46;;;;;;;0.00;0.00;;;17.00;97.80;;;;;;4968479;28;20503;-94
2022/04/19 10:11:12;;;;;;;0.00;0.00;;;17.20;97.70;;;;;;4971788;28;20481;-94
2022/04/19 10:13:39;;;;;;;0.00;0.00;;;17.70;98.60;;;;;;4974503;28;20883;-93
2022/04/19 10:16:15;;;;;;;0.00;0.00;;;17.70;97.50;;;;;;4971864;28;20472;-93
2022/04/19 10:18:44;;;;;;;0.00;0.00;;;17.60;98.60;;;;;;4971015;28;20853;-93
2022/04/19 10:21:15;;;;;;;0.00;0.00;;;18.00;98.40;;;;;;4971162;28;20544;-94
2022/04/19 10:23:42;;;;;;;0.00;0.00;;;18.40;98.90;;;;;;4970589;28;20452;-88
2022/04/19 10:26:31;;;;;;;0.00;0.00;;;18.70;96.70;;;;;;4967760;28;20496;-89
2022/04/19 10:28:58;;;;;;;0.00;0.00;;;18.60;97.80;;;;;;4969462;28;20441;-90
2022/04/19 10:31:31;;;;;;;0.00;0.00;;;19.00;99.60;;;;;;4950894;28;20840;-87
2022/04/19 10:34:04;;;;;;;0.00;0.00;;;18.70;97.60;;;;;;4969785;28;20469;-88
2022/04/19 10:36:40;;;;;;;0.00;0.00;;;18.70;97.50;;;;;;4965471;28;20444;-88
2022/04/19 10:39:11;;;;;;;0.00;0.00;;;19.10;97.00;;;;;;4968456;28;20460;-88
2022/04/19 10:41:56;;;;;;;0.00;0.00;;;18.70;96.20;;;;;;4968533;28;20497;-88
2022/04/19 10:44:29;;;;;;;0.00;0.00;;;18.60;95.70;;;;;;4967234;28;20492;-89
2022/04/19 10:47:16;;;;;;;0.00;0.00;;;19.20;95.80;;;;;;4971137;28;20520;-89
2022/04/19 10:49:50;;;;;;;0.00;0.00;;;19.30;96.50;;;;;;4965439;28;20557;-90
2022/04/19 10:52:40;;;;;;;0.00;0.00;;;19.00;96.20;;;;;;4965051;28;20457;-87
2022/04/19 10:55:21;;;;;;;0.00;0.00;;;18.80;95.60;;;;;;4969988;28;20831;-90
2022/04/19 10:58:09;;;;;;;0.00;0.00;;;19.50;98.00;;;;;;4969415;28;20963;-89
2022/04/19 11:00:36;;;;;;;0.00;0.00;;;19.40;95.10;;;;;;4968366;28;20445;-90
2022/04/19 11:03:07;;;;;;;0.00;0.00;;;19.60;94.80;;;;;;4964691;28;20522;-90
2022/04/19 11:05:46;;;;;;;0.00;0.00;;;19.60;93.20;;;;;;4966994;28;20488;-90
2022/04/19 11:08:21;;;;;;;0.00;0.00;;;19.90;96.20;;;;;;4965623;28;20563;-90
2022/04/19 11:10:48;;;;;;;0.00;0.00;;;20.30;95.40;;;;;;4982127;28;20837;-90
2022/04/19 11:13:14;;;;;;;0.00;0.00;;;20.40;92.40;;;;;;4953298;28;20449;-90
2022/04/19 11:15:42;;;;;;;0.00;0.00;;;20.40;91.60;;;;;;4975289;28;20785;-90
2022/04/19 11:18:28;;;;;;;0.00;0.00;;;20.30;91.00;;;;;;4956118;28;20192;-89
2022/04/19 11:20:57;;;;;;;0.00;0.00;;;20.40;91.80;;;;;;4971697;28;20453;-87
2022/04/19 11:23:26;;;;;;;0.00;0.00;;;19.80;93.40;;;;;;4973994;28;20502;-90
2022/04/19 11:25:53;;;;;;;0.00;0.00;;;20.00;93.20;;;;;;4952672;28;20724;-89
2022/04/19 11:28:21;;;;;;;0.00;0.00;;;20.10;92.40;;;;;;4971176;28;20548;-89
2022/04/19 11:30:49;;;;;;;0.00;0.00;;;20.80;93.00;;;;;;4970977;28;20484;-88
2022/04/19 11:33:41;;;;;;;0.00;0.00;;;20.80;90.90;;;;;;4968756;28;20459;-88
2022/04/19 11:36:10;;;;;;;0.00;0.00;;;21.20;91.90;;;;;;4966238;28;21333;-87
2022/04/19 11:38:40;;;;;;;0.00;0.00;;;21.30;91.20;;;;;;4970627;28;20480;-87
2022/04/19 11:46:46;;;;;;;0.00;0.00;;;20.50;88.10;;;;;;4973531;28;20540;-88
2022/04/19 11:49:25;;;;;;;0.00;0.00;;;21.30;89.40;;;;;;4971024;28;20448;-87
2022/04/19 11:52:00;;;;;;;0.00;0.00;;;21.40;90.00;;;;;;4972754;28;20477;-88
2022/04/19 11:54:30;;;;;;;0.00;0.00;;;21.30;87.60;;;;;;4974315;28;20425;-88
2022/04/19 11:56:57;;;;;;;0.00;0.00;;;21.40;87.80;;;;;;4970584;28;20468;-88
2022/04/19 11:59:28;;;;;;;0.00;0.00;;;22.00;88.40;;;;;;4972422;28;20433;-88
2022/04/19 12:01:54;;;;;;;0.00;0.00;;;21.70;90.10;;;;;;4951579;28;20463;-88
2022/04/19 12:04:19;;;;;;;0.00;0.00;;;21.40;85.40;;;;;;4972969;28;20441;-88
2022/04/19 12:06:47;;;;;;;0.00;0.00;;;21.80;87.90;;;;;;4972333;28;20538;-88
2022/04/19 12:09:17;;;;;;;0.00;0.00;;;21.90;87.80;;;;;;4971546;28;20204;-89
2022/04/19 12:11:43;;;;;;;0.00;0.00;;;21.80;82.10;;;;;;4973562;28;20662;-89
2022/04/19 12:14:09;;;;;;;0.00;0.00;;;21.40;84.70;;;;;;4972518;28;20953;-89
2022/04/19 12:16:37;;;;;;;0.00;0.00;;;21.10;81.60;;;;;;4956422;28;20448;-88
2022/04/19 12:19:10;;;;;;;0.00;0.00;;;21.60;83.40;;;;;;4973045;28;20185;-88
2022/04/19 12:21:43;;;;;;;0.00;0.00;;;22.40;83.10;;;;;;4971311;28;20472;-89
2022/04/19 12:24:28;;;;;;;0.00;0.00;;;22.60;79.00;;;;;;4970008;28;20445;-89
2022/04/19 12:27:06;;;;;;;0.00;0.00;;;22.20;81.10;;;;;;4946807;28;20881;-89
2022/04/19 12:29:35;;;;;;;0.00;0.00;;;22.50;83.60;;;;;;4969875;28;20472;-89
2022/04/19 12:32:02;;;;;;;0.00;0.00;;;22.40;80.80;;;;;;4971780;28;20441;-91
2022/04/19 12:34:36;;;;;;;0.00;0.00;;;22.50;78.10;;;;;;4958979;28;20461;-92
2022/04/19 12:37:07;;;;;;;0.00;0.00;;;22.60;79.90;;;;;;4970231;28;20484;-92
2022/04/19 12:39:33;;;;;;;0.00;0.00;;;22.60;80.10;;;;;;4966819;28;20845;-89
2022/04/19 12:42:11;;;;;;;0.00;0.00;;;22.70;79.50;;;;;;4972999;28;20468;-89
2022/04/19 12:44:39;;;;;;;0.00;0.00;;;22.40;73.60;;;;;;4953071;28;20193;-89
2022/04/19 12:47:14;;;;;;;0.00;0.00;;;22.20;75.30;;;;;;4967728;28;20453;-90
2022/04/19 12:49:45;;;;;;;0.00;0.00;;;22.40;72.20;;;;;;4953290;28;20475;-89
2022/04/19 12:52:11;;;;;;;0.00;0.00;;;22.50;72.40;;;;;;4971273;28;20457;-89
2022/04/19 12:54:38;;;;;;;0.00;0.00;;;22.50;69.00;;;;;;4973077;28;20497;-91
2022/04/19 12:57:10;;;;;;;0.00;0.00;;;22.30;66.70;;;;;;4953754;28;20457;-89
2022/04/19 12:59:35;;;;;;;0.00;0.00;;;22.40;65.80;;;;;;4972742;28;20449;-89
2022/04/19 13:02:02;;;;;;;0.00;0.00;;;22.30;65.20;;;;;;4967604;28;21090;-89
2022/04/19 13:04:28;;;;;;;0.00;0.00;;;22.40;65.40;;;;;;4970596;28;20186;-89
2022/04/19 13:12:26;;;;;;;0.00;0.00;;;22.50;66.70;;;;;;4969022;28;20500;-89
2022/04/19 13:14:54;;;;;;;0.00;0.00;;;22.30;62.80;;;;;;4968836;28;20473;-88
2022/04/19 13:17:20;;;;;;;0.00;0.00;;;22.40;61.00;;;;;;4968962;28;20445;-88
2022/04/19 13:19:46;;;;;;;0.00;0.00;;;22.50;60.40;;;;;;4971124;28;20452;-89
2022/04/19 13:22:13;;;;;;;0.00;0.00;;;22.40;58.50;;;;;;4970062;28;20964;-89
2022/04/19 13:24:39;;;;;;;0.00;0.00;;;23.00;59.50;;;;;;4972015;28;20453;-88
2022/04/19 13:27:06;;;;;;;0.00;0.00;;;22.00;55.80;;;;;;4970603;28;20441;-89
2022/04/19 13:29:35;;;;;;;0.00;0.00;;;22.30;53.90;;;;;;4966500;28;20926;-87
2022/04/19 13:32:01;;;;;;;0.00;0.00;;;21.80;54.80;;;;;;4949816;28;20702;-89
2022/04/19 13:34:27;;;;;;;0.00;0.00;;;21.90;55.00;;;;;;4979376;28;20443;-89
2022/04/19 13:36:56;;;;;;;0.00;0.00;;;22.30;56.20;;;;;;4970644;28;20461;-88
2022/04/19 13:39:22;;;;;;;0.00;0.00;;;22.40;57.00;;;;;;4971213;28;20825;-90
2022/04/19 13:41:47;;;;;;;0.00;0.00;;;21.80;50.70;;;;;;4970798;28;20453;-88